Métars Prochent de la station Meteo-Danaklab-Domdidier

Ci-dessous, Les Metars prochent de la station Meteo-Danaklab-Domdidier

Un METAR (METeorological Aerodrome Report1) est un rapport d'observation (et non de prévision) météorologique pour l'aviation. Ce code international a été développé par les membres de l'Organisation de l'aviation civile internationale et est approuvé par l'Organisation météorologique mondiale. Les données de base sont communes à tous les pays mais certaines sections du code sont sujettes à des variantes locales.

Les messages METAR sont mis à jour régulièrement, souvent entre 30 minutes à 60 minutes pendant les heures d'ouverture du terrain, selon son équipement et l'éventualité d'un changement important du temps observé.


LSMP - Payerne (mil/Aut, Switzerland
Distance de la station: NNO 85km
Mise à jour: 22/01/2019 09:50
Broulliard, Couvert
Broulliard, Couvert
 Wind from variable
Vent: variable 6 km/h
Température: -1°C
Point de rosée: -3°C
Humidité: 86%
Baromètre: 1012 hPa
Récapitulatifs: Broulliard
Clouds: Couvert
Visibility: 4 km
Cloud details: Couvert 610 m
2019/01/22 08:50 LSMP 220850Z VRB03KT 4200 BR OVC020 M01/M03 Q1012 RMK GRN
LSZB - Bern/Belp, Switzerland
Distance de la station: NNE 98km
Mise à jour: 22/01/2019 09:50
Couvert
Couvert
 Wind from ESE
Vent: ESE 6 km/h
Température: -2°C
Point de rosée: -4°C
Humidité: 86%
Baromètre: 1011 hPa
Clouds: Couvert
Visibility: 5 km
Cloud details: Couvert 366 m
2019/01/22 08:50 LSZB 220850Z 11003KT 080V160 4500 OVC012 M02/M04 Q1011 NOSIG
 
LSGG - Geneva/Cointrin, Switzerland
Distance de la station: ONO 81km
Mise à jour: 22/01/2019 09:50
nuageux
nuageux
 Wind from ENE
Vent: ENE 7 km/h
Température: 1°C
Wind Chill: -2°C
Point de rosée: -2°C
Humidité: 81%
Baromètre: 1012 hPa
Clouds: nuageux
Visibility: 6 km
Cloud details: Quelques Nuages 457 m
nuageux 762 m
2019/01/22 08:50 LSGG 220850Z 07004KT 020V110 6000 FEW015 BKN025 01/M02 Q1012 NOSIG
LFLP - Annecy/Meythet, France
Distance de la station: OSO 83km
Mise à jour: 22/01/2019 10:00
Broulliard, Couvert
Broulliard, Couvert
 Wind from variable
Vent: variable 2 km/h
Température: 0°C
Point de rosée: -2°C
Humidité: 87%
Baromètre: 1011 hPa
Récapitulatifs: Broulliard
Clouds: Couvert
Visibility: 5 km
Cloud details: Couvert 1067 m
2019/01/22 09:00 LFLP 220900Z AUTO VRB01KT 5000 BR OVC035 00/M02 Q1011 NOSIG
 
LSGC - Les Eplatures, Switzerland
Distance de la station: NNO 115km
Mise à jour: 22/01/2019 09:50
Freezing fog, nuageux
Freezing fog, nuageux
 Wind from calm
Vent: calme
Température: -10°C
Point de rosée: -11°C
Humidité: 92%
Baromètre: 1008 hPa
Récapitulatifs: Freezing Fog
Clouds: nuageux
Visibility: 0 km
Cloud details: nuageux 30 m
2019/01/22 08:50 LSGC 220850Z 00000KT 0100 FZFG BKN001 M10/M11 Q1008
LSGS - Sion (mil/Civ/Au, Switzerland
Distance de la station: NE 22km
Mise à jour: 22/01/2019 09:50
clair
clair
 Wind from NE
Vent: NE 6 km/h
Température: -5°C
Point de rosée: -9°C
Humidité: 74%
Baromètre: 1013 hPa
Récapitulatifs: clair
Visibility: supérieure à 10 km
2019/01/22 08:50 LSGS 220850Z 05003KT CAVOK M05/M09 Q1013
 
LSMS - Sion (mil), Switzerland
Distance de la station: NE 22km
Mise à jour: 22/01/2019 09:50
clair
clair
 Wind from NE
Vent: NE 6 km/h
Température: -5°C
Point de rosée: -9°C
Humidité: 74%
Baromètre: 1013 hPa
Récapitulatifs: clair
Visibility: supérieure à 10 km
2019/01/22 08:50 LSMS 220850Z 05003KT CAVOK M05/M09 Q1013 RMK BLU+
LSMM - Meiringen, Switzerland
Distance de la station: NE 107km
Mise à jour: 22/01/2019 09:50
Couvert
Couvert
 Wind from E
Vent: E 9 km/h
Température: -5°C
Wind Chill: -9°C
Point de rosée: -8°C
Humidité: 80%
Baromètre: 1012 hPa
Clouds: Couvert
Visibility: 10 km
Cloud details: Couvert 518 m
2019/01/22 08:50 LSMM 220850Z 09005KT 9999 OVC017 M05/M08 Q1012 RMK WHT
 
LIMW - Aosta Arpt, Italy
Distance de la station: SSE 42km
Mise à jour: 22/01/2019 09:50
clair
clair
 Wind from variable
Vent: variable 4 km/h
Température: -7°C
Point de rosée: -9°C
Humidité: 86%
Baromètre: 1011 hPa
Clouds: clair
Visibility: 10 km
2019/01/22 08:50 LIMW 220850Z AUTO VRB02KT 9999 NCD M07/M09 Q1011
LIMH - Pian Rosa (mtn T, Italy
Distance de la station: ESE 46km
Mise à jour: 22/01/2019 08:55
Pas à jour
clair
clair
 Wind from variable
Vent: variable 0 km/h
Température: -16°C
Point de rosée: -27°C
Humidité: 38%
Baromètre: 999 hPa
Récapitulatifs: clair
Visibility: supérieure à 10 km
2019/01/22 07:55 LIMH 220755Z /////KT CAVOK M16/M27 Q0999
 
LFLB - Chambery/Aix Bai, France
Distance de la station: OSO 109km
Mise à jour: 22/01/2019 10:00
Couvert
Couvert
 Wind from N
Vent: N 15 km/h
Température: 2°C
Wind Chill: -2°C
Point de rosée: 0°C
Humidité: 87%
Baromètre: 1013 hPa
Clouds: Couvert
Visibility: 9 km
Cloud details: nuageux 427 m
Couvert 640 m
2019/01/22 09:00 LFLB 220900Z AUTO 01008KT 9000 BKN014 OVC021 02/M00 Q1013 BECMG NSC
LIMF - Torino/Caselle, Italy
Distance de la station: SSE 103km
Mise à jour: 22/01/2019 09:50
clair
clair
 Wind from ESE
Vent: ESE 4 km/h
Température: -1°C
Point de rosée: -3°C
Humidité: 86%
Baromètre: 1010 hPa
Récapitulatifs: clair
Visibility: supérieure à 10 km
2019/01/22 08:50 LIMF 220850Z 11002KT CAVOK M01/M03 Q1010
 
LIMA - Aeritalia, Italy
Distance de la station: SSE 116km
Mise à jour: 22/01/2019 09:50
clair
clair
 Wind from calm
Vent: calme
Température: 0°C
Point de rosée: -4°C
Humidité: 75%
Baromètre: 1010 hPa
Récapitulatifs: clair
Visibility: supérieure à 10 km
2019/01/22 08:50 LIMA 220850Z 00000KT CAVOK 00/M04 Q1010